Time;durP1;ratioP1;P1;durP2;ratioP2;P2;SDS_P1;SDS_P2;PMS_P1;PMS_P2;Temp;Humidity;BMP_temperature;BMP_pressure;BME280_temperature;BME280_humidity;BME280_pressure;Samples;Min_cycle;Max_cycle;Signal;HPM_P1;HPM_P2
2021/11/09 00:00:44;;;;;;;37.70;10.43;;;;;;;;;;5012097;28;20471;-68
2021/11/09 00:03:10;;;;;;;39.80;10.45;;;;;;;;;;5011814;28;20058;-67
2021/11/09 00:05:44;;;;;;;41.08;10.55;;;;;;;;;;5012110;28;20482;-67
2021/11/09 00:08:14;;;;;;;30.00;9.02;;;;;;;;;;5010567;28;20018;-68
2021/11/09 00:10:39;;;;;;;32.00;9.73;;;;;;;;;;5014330;28;20021;-68
2021/11/09 00:13:04;;;;;;;33.22;9.57;;;;;;;;;;5023875;28;20084;-68
2021/11/09 00:15:31;;;;;;;37.65;8.18;;;;;;;;;;5012287;28;20014;-70
2021/11/09 00:18:01;;;;;;;31.23;8.85;;;;;;;;;;5010234;28;20026;-67
2021/11/09 00:20:29;;;;;;;22.83;8.55;;;;;;;;;;5011808;28;20030;-67
2021/11/09 00:22:55;;;;;;;24.85;8.48;;;;;;;;;;5011322;28;20034;-67
2021/11/09 00:25:22;;;;;;;29.77;9.27;;;;;;;;;;5011197;28;20075;-67
2021/11/09 00:27:47;;;;;;;26.17;8.60;;;;;;;;;;5009736;28;20050;-67
2021/11/09 00:30:14;;;;;;;26.73;8.30;;;;;;;;;;5011598;28;20453;-67
2021/11/09 00:32:43;;;;;;;37.90;7.60;;;;;;;;;;5012004;28;20068;-69
2021/11/09 00:35:08;;;;;;;25.83;8.50;;;;;;;;;;5011236;28;20478;-68
2021/11/09 00:37:33;;;;;;;30.60;8.05;;;;;;;;;;5011105;28;20041;-69
2021/11/09 00:39:59;;;;;;;32.67;7.82;;;;;;;;;;5010798;28;20021;-68
2021/11/09 00:42:24;;;;;;;37.13;8.32;;;;;;;;;;5011288;28;20018;-69
2021/11/09 00:44:49;;;;;;;41.92;8.20;;;;;;;;;;5011548;28;20471;-68
2021/11/09 00:47:14;;;;;;;32.33;8.63;;;;;;;;;;5011478;28;20018;-68
2021/11/09 00:49:40;;;;;;;24.07;7.10;;;;;;;;;;5011130;28;20037;-67
2021/11/09 00:52:05;;;;;;;39.65;8.02;;;;;;;;;;5010250;28;20745;-68
2021/11/09 00:54:30;;;;;;;26.30;7.90;;;;;;;;;;5011773;28;20053;-68
2021/11/09 00:56:56;;;;;;;24.38;7.28;;;;;;;;;;5009779;28;20018;-67
2021/11/09 00:59:21;;;;;;;20.38;8.18;;;;;;;;;;5011215;28;20463;-68
2021/11/09 01:01:46;;;;;;;26.25;7.03;;;;;;;;;;5010722;28;20026;-70
2021/11/09 01:04:12;;;;;;;29.00;7.32;;;;;;;;;;5010945;28;20046;-67
2021/11/09 01:06:37;;;;;;;24.38;6.75;;;;;;;;;;5010296;28;20069;-68
2021/11/09 01:09:03;;;;;;;33.85;8.32;;;;;;;;;;5010736;28;20026;-69
2021/11/09 01:11:28;;;;;;;23.30;7.10;;;;;;;;;;5010717;28;20014;-68
2021/11/09 01:13:54;;;;;;;27.38;7.10;;;;;;;;;;5010353;28;20022;-67
2021/11/09 01:16:19;;;;;;;22.80;7.50;;;;;;;;;;5009095;28;20474;-68
2021/11/09 01:18:46;;;;;;;28.60;6.45;;;;;;;;;;5010703;28;20033;-68
2021/11/09 01:21:13;;;;;;;29.85;7.63;;;;;;;;;;5008706;28;20018;-68
2021/11/09 01:23:38;;;;;;;19.98;7.13;;;;;;;;;;5009824;28;20072;-67
2021/11/09 01:26:04;;;;;;;24.85;6.82;;;;;;;;;;5010405;28;20437;-67
2021/11/09 01:28:29;;;;;;;26.02;7.40;;;;;;;;;;5010140;28;20113;-68
2021/11/09 01:30:54;;;;;;;27.23;7.47;;;;;;;;;;5010935;28;20116;-68
2021/11/09 01:33:20;;;;;;;20.25;6.38;;;;;;;;;;5010051;28;20066;-68
2021/11/09 01:35:45;;;;;;;22.70;6.55;;;;;;;;;;5010873;28;20030;-69
2021/11/09 01:38:10;;;;;;;26.70;8.18;;;;;;;;;;5010026;28;20087;-68
2021/11/09 01:40:37;;;;;;;30.02;7.32;;;;;;;;;;5010631;28;20585;-67
2021/11/09 01:43:03;;;;;;;28.17;7.43;;;;;;;;;;5010122;28;20032;-68
2021/11/09 01:45:29;;;;;;;24.35;8.43;;;;;;;;;;5010277;28;20120;-68
2021/11/09 01:47:54;;;;;;;25.88;6.75;;;;;;;;;;5010213;28;20073;-68
2021/11/09 01:50:22;;;;;;;27.70;7.90;;;;;;;;;;5010246;28;20065;-68
2021/11/09 01:52:47;;;;;;;28.42;7.70;;;;;;;;;;5010284;28;20062;-68
2021/11/09 01:55:15;;;;;;;44.90;8.25;;;;;;;;;;5009941;28;20060;-68
2021/11/09 01:57:41;;;;;;;21.80;6.72;;;;;;;;;;5010282;28;20159;-69
2021/11/09 02:00:10;;;;;;;30.02;6.80;;;;;;;;;;5009727;28;20112;-68
2021/11/09 02:02:35;;;;;;;30.83;6.35;;;;;;;;;;5010145;28;20026;-68
2021/11/09 02:05:00;;;;;;;33.50;8.00;;;;;;;;;;5010482;28;20483;-68
2021/11/09 02:07:25;;;;;;;25.90;7.00;;;;;;;;;;5009124;28;20029;-68
2021/11/09 02:09:50;;;;;;;34.58;7.57;;;;;;;;;;5009450;28;20041;-68
2021/11/09 02:12:16;;;;;;;31.67;7.55;;;;;;;;;;5010088;28;20041;-69
2021/11/09 02:14:41;;;;;;;31.73;7.63;;;;;;;;;;5010053;28;20026;-69
2021/11/09 02:17:07;;;;;;;24.60;7.63;;;;;;;;;;5009876;28;20021;-68
2021/11/09 02:19:32;;;;;;;20.55;6.82;;;;;;;;;;5009456;28;20030;-68
2021/11/09 02:21:57;;;;;;;29.42;6.90;;;;;;;;;;5009276;28;20022;-68
2021/11/09 02:24:23;;;;;;;20.80;6.25;;;;;;;;;;5010405;28;20548;-68
2021/11/09 02:26:49;;;;;;;29.55;8.13;;;;;;;;;;5009879;28;20038;-68
2021/11/09 02:29:14;;;;;;;26.92;7.68;;;;;;;;;;5009218;28;20497;-68
2021/11/09 02:31:39;;;;;;;24.80;6.97;;;;;;;;;;5010427;28;20485;-68
2021/11/09 02:34:04;;;;;;;24.75;7.22;;;;;;;;;;5009476;28;20026;-68
2021/11/09 02:36:29;;;;;;;23.27;7.65;;;;;;;;;;5013729;28;20014;-68
2021/11/09 02:38:55;;;;;;;46.22;12.50;;;;;;;;;;5013301;28;20033;-68
2021/11/09 02:41:20;;;;;;;28.50;8.18;;;;;;;;;;5014177;28;20385;-68
2021/11/09 02:43:46;;;;;;;29.15;7.85;;;;;;;;;;5013529;28;20018;-68
2021/11/09 02:51:35;;;;;;;24.30;7.07;;;;;;;;;;5011721;28;20088;-68
2021/11/09 02:56:35;;;;;;;26.42;7.47;;;;;;;;;;5013961;28;20325;-68
2021/11/09 02:59:34;;;;;;;36.95;8.98;;;;;;;;;;5013099;28;20026;-68
2021/11/09 03:02:05;;;;;;;32.80;8.80;;;;;;;;;;5012359;28;20397;-68
2021/11/09 03:07:11;;;;;;;28.85;8.07;;;;;;;;;;5012967;28;20129;-68
2021/11/09 03:12:04;;;;;;;25.88;8.35;;;;;;;;;;5012532;28;20029;-68
2021/11/09 03:14:29;;;;;;;30.17;8.60;;;;;;;;;;5007571;28;20026;-68
2021/11/09 03:16:58;;;;;;;24.13;8.57;;;;;;;;;;5012552;28;20102;-68
2021/11/09 03:46:28;;;;;;;40.03;8.43;;;;;;;;;;5012001;28;20061;-68
2021/11/09 03:48:54;;;;;;;32.85;7.45;;;;;;;;;;5011826;28;20029;-68
2021/11/09 03:51:19;;;;;;;24.67;8.43;;;;;;;;;;5011519;28;20394;-68
2021/11/09 03:53:44;;;;;;;30.00;8.40;;;;;;;;;;5010601;28;20030;-68
2021/11/09 03:56:24;;;;;;;29.58;7.80;;;;;;;;;;5012820;28;20041;-68
2021/11/09 03:58:51;;;;;;;27.48;7.78;;;;;;;;;;5012302;28;20075;-68
2021/11/09 04:01:24;;;;;;;26.52;8.27;;;;;;;;;;5012240;28;20394;-68
2021/11/09 04:06:37;;;;;;;25.65;7.72;;;;;;;;;;5012768;28;20421;-67
2021/11/09 04:11:48;;;;;;;30.17;8.90;;;;;;;;;;5012297;28;20052;-68
2021/11/09 04:16:57;;;;;;;30.35;8.25;;;;;;;;;;5011255;28;20040;-68
2021/11/09 04:22:37;;;;;;;29.17;7.72;;;;;;;;;;5011433;28;20026;-68
2021/11/09 04:25:24;;;;;;;;;;;;;;;;;;5011524;28;20080;-68
2021/11/09 05:02:19;;;;;;;24.92;8.15;;;;;;;;;;5028627;28;20040;-66
2021/11/09 05:10:31;;;;;;;;;;;;;;;;;;4968342;28;20034;-67
2021/11/09 05:12:56;;;;;;;27.20;9.18;;;;;;;;;;5018081;28;19913;-67
2021/11/09 05:15:21;;;;;;;25.88;8.88;;;;;;;;;;5030213;28;20063;-66
2021/11/09 05:17:46;;;;;;;28.48;9.48;;;;;;;;;;5030679;28;20389;-67
2021/11/09 05:20:11;;;;;;;29.08;9.55;;;;;;;;;;5030413;28;20025;-67
2021/11/09 05:22:37;;;;;;;37.67;9.43;;;;;;;;;;5032400;28;20493;-68
2021/11/09 05:25:02;;;;;;;34.17;10.77;;;;;;;;;;5030094;28;20045;-68
2021/11/09 05:27:28;;;;;;;32.08;10.18;;;;;;;;;;5029186;28;20108;-67
2021/11/09 05:29:54;;;;;;;28.58;9.68;;;;;;;;;;5030351;28;20033;-67
2021/11/09 05:32:20;;;;;;;35.53;9.38;;;;;;;;;;5030272;28;20047;-67
2021/11/09 05:34:45;;;;;;;29.63;9.50;;;;;;;;;;5030204;28;20026;-68
2021/11/09 05:37:13;;;;;;;33.15;9.52;;;;;;;;;;5037904;28;20092;-68
2021/11/09 05:40:02;;;;;;;35.58;9.48;;;;;;;;;;5037733;28;20021;-65
2021/11/09 05:42:24;;;;;;;30.33;9.95;;;;;;;;;;5025691;28;20128;-68
2021/11/09 05:44:50;;;;;;;31.58;9.88;;;;;;;;;;5030228;28;20469;-68
2021/11/09 05:47:16;;;;;;;28.15;9.57;;;;;;;;;;5029719;28;20021;-68
2021/11/09 05:49:41;;;;;;;32.72;9.93;;;;;;;;;;5029236;28;20148;-67
2021/11/09 05:52:07;;;;;;;35.55;9.93;;;;;;;;;;5028717;28;20079;-67
2021/11/09 05:54:32;;;;;;;27.83;9.75;;;;;;;;;;5029692;28;20120;-68
2021/11/09 05:56:57;;;;;;;31.38;13.20;;;;;;;;;;5030022;28;20099;-67
2021/11/09 05:59:22;;;;;;;29.75;8.93;;;;;;;;;;5029303;28;20029;-68
2021/11/09 06:01:48;;;;;;;33.05;9.98;;;;;;;;;;5029556;28;20049;-68
2021/11/09 06:04:13;;;;;;;30.63;9.57;;;;;;;;;;5028638;28;20018;-67
2021/11/09 06:06:39;;;;;;;30.40;9.70;;;;;;;;;;5029574;28;20033;-68
2021/11/09 06:09:04;;;;;;;35.63;9.80;;;;;;;;;;5029826;28;20018;-68
2021/11/09 06:11:30;;;;;;;48.33;10.50;;;;;;;;;;5033075;28;20017;-68
2021/11/09 06:13:56;;;;;;;31.63;9.77;;;;;;;;;;5032196;28;20037;-66
2021/11/09 06:16:21;;;;;;;25.52;8.68;;;;;;;;;;5034734;28;20031;-68
2021/11/09 06:18:46;;;;;;;41.28;10.63;;;;;;;;;;5033762;28;20495;-67
2021/11/09 06:21:11;;;;;;;32.35;9.98;;;;;;;;;;5033617;28;20032;-67
2021/11/09 06:23:36;;;;;;;31.63;10.80;;;;;;;;;;5033106;28;20018;-67
2021/11/09 06:26:02;;;;;;;27.70;12.30;;;;;;;;;;5033833;28;20018;-66
2021/11/09 06:28:28;;;;;;;24.35;9.52;;;;;;;;;;5029732;28;20032;-67
2021/11/09 06:30:53;;;;;;;31.25;11.15;;;;;;;;;;5022131;28;20084;-67
2021/11/09 06:33:19;;;;;;;34.70;10.52;;;;;;;;;;5031459;28;20474;-67
2021/11/09 06:35:44;;;;;;;25.25;9.32;;;;;;;;;;5031306;28;20036;-67
2021/11/09 06:38:09;;;;;;;26.33;9.48;;;;;;;;;;5030020;28;20021;-67
2021/11/09 06:40:35;;;;;;;28.30;10.13;;;;;;;;;;5030648;28;20033;-66
2021/11/09 06:43:00;;;;;;;23.02;9.38;;;;;;;;;;5029731;28;20189;-66
2021/11/09 06:45:26;;;;;;;30.35;9.80;;;;;;;;;;5030446;28;20458;-66
2021/11/09 06:47:52;;;;;;;24.75;9.23;;;;;;;;;;5027307;28;20025;-67
2021/11/09 06:50:18;;;;;;;28.85;10.43;;;;;;;;;;5029397;28;20017;-67
2021/11/09 06:52:43;;;;;;;24.60;8.82;;;;;;;;;;5029707;28;20108;-67
2021/11/09 06:55:09;;;;;;;26.05;9.73;;;;;;;;;;5029166;28;20116;-66
2021/11/09 06:57:34;;;;;;;36.22;12.07;;;;;;;;;;5029276;28;20324;-66
2021/11/09 06:59:59;;;;;;;35.03;9.90;;;;;;;;;;5030777;28;20029;-66
2021/11/09 07:02:27;;;;;;;26.55;9.75;;;;;;;;;;5025730;28;20032;-65
2021/11/09 07:04:52;;;;;;;29.30;9.50;;;;;;;;;;5030468;28;20041;-67
2021/11/09 07:07:17;;;;;;;23.92;9.25;;;;;;;;;;5029008;28;20067;-66
2021/11/09 07:09:42;;;;;;;22.20;9.13;;;;;;;;;;5028150;28;20021;-67
2021/11/09 07:12:08;;;;;;;26.70;9.55;;;;;;;;;;5032426;28;20500;-67
2021/11/09 07:14:33;;;;;;;30.58;10.52;;;;;;;;;;5033079;28;20029;-67
2021/11/09 07:16:59;;;;;;;24.85;8.73;;;;;;;;;;5032180;28;20032;-67
2021/11/09 07:19:24;;;;;;;21.52;8.75;;;;;;;;;;5030621;28;20013;-66
2021/11/09 07:21:50;;;;;;;20.98;8.45;;;;;;;;;;5030864;28;20017;-66
2021/11/09 07:24:16;;;;;;;35.67;9.43;;;;;;;;;;5017745;28;20022;-67
2021/11/09 07:26:41;;;;;;;16.52;8.15;;;;;;;;;;5032599;28;20387;-67
2021/11/09 07:29:06;;;;;;;29.90;8.70;;;;;;;;;;5031985;28;20017;-66
2021/11/09 07:31:32;;;;;;;26.65;9.77;;;;;;;;;;5032613;28;20033;-67
2021/11/09 07:33:58;;;;;;;21.70;10.25;;;;;;;;;;5032113;28;20026;-67
2021/11/09 07:36:24;;;;;;;22.58;8.52;;;;;;;;;;5031631;28;20032;-67
2021/11/09 07:38:49;;;;;;;19.88;8.63;;;;;;;;;;5031695;28;20045;-67
2021/11/09 07:41:14;;;;;;;33.45;9.35;;;;;;;;;;5032310;28;20487;-66
2021/11/09 07:43:39;;;;;;;24.00;8.00;;;;;;;;;;5031138;28;20132;-68
2021/11/09 07:46:05;;;;;;;25.23;9.32;;;;;;;;;;5032965;28;20425;-67
2021/11/09 07:48:30;;;;;;;22.95;8.55;;;;;;;;;;5032164;28;20028;-67
2021/11/09 07:50:56;;;;;;;26.92;7.95;;;;;;;;;;5032258;28;20120;-67
2021/11/09 07:53:22;;;;;;;16.48;7.28;;;;;;;;;;5031419;28;20021;-68
2021/11/09 07:55:57;;;;;;;22.02;7.72;;;;;;;;;;5032527;28;20087;-68
2021/11/09 07:58:32;;;;;;;24.10;7.97;;;;;;;;;;5032242;28;20040;-68
2021/11/09 08:01:22;;;;;;;19.95;7.75;;;;;;;;;;5034883;28;20017;-68
2021/11/09 08:06:16;;;;;;;17.60;6.60;;;;;;;;;;5031162;28;20028;-67
2021/11/09 08:11:25;;;;;;;29.13;7.80;;;;;;;;;;5031248;28;20368;-68
2021/11/09 08:13:51;;;;;;;24.65;7.57;;;;;;;;;;5032379;28;20112;-68
2021/11/09 08:16:17;;;;;;;27.25;8.02;;;;;;;;;;5032067;28;20100;-68
2021/11/09 08:18:42;;;;;;;18.80;7.28;;;;;;;;;;5031771;28;20029;-68
2021/11/09 08:21:08;;;;;;;27.10;7.78;;;;;;;;;;5027188;28;20032;-67
2021/11/09 08:23:33;;;;;;;23.02;7.75;;;;;;;;;;5031332;28;20132;-67
2021/11/09 08:25:58;;;;;;;23.40;7.30;;;;;;;;;;5031128;28;20018;-67
2021/11/09 08:28:23;;;;;;;23.93;7.20;;;;;;;;;;5030610;28;20014;-66
2021/11/09 08:30:51;;;;;;;28.90;7.13;;;;;;;;;;5031431;28;20368;-67
2021/11/09 08:33:18;;;;;;;25.52;7.43;;;;;;;;;;5030601;28;20021;-67
2021/11/09 08:35:43;;;;;;;27.10;8.35;;;;;;;;;;5031652;28;20108;-67
2021/11/09 08:38:08;;;;;;;18.75;6.68;;;;;;;;;;5031586;28;20104;-67
2021/11/09 08:40:35;;;;;;;22.58;7.13;;;;;;;;;;5031080;28;20025;-67
2021/11/09 08:43:02;;;;;;;26.15;7.22;;;;;;;;;;5024527;28;20049;-68
2021/11/09 08:47:56;;;;;;;21.80;8.80;;;;;;;;;;5031445;28;20010;-67
2021/11/09 08:50:24;;;;;;;27.50;8.07;;;;;;;;;;5014623;28;20108;-67
2021/11/09 08:52:50;;;;;;;24.13;8.23;;;;;;;;;;5030179;28;20037;-67
2021/11/09 08:55:35;;;;;;;24.42;7.28;;;;;;;;;;5030832;28;20026;-67
2021/11/09 09:01:18;;;;;;;21.08;6.72;;;;;;;;;;5029955;28;20044;-67
2021/11/09 09:06:30;;;;;;;12.27;4.20;;;;;;;;;;5030844;28;20036;-67
2021/11/09 09:08:56;;;;;;;33.67;7.88;;;;;;;;;;5030647;28;20474;-67
2021/11/09 09:11:22;;;;;;;18.67;4.22;;;;;;;;;;5030442;28;20026;-66
2021/11/09 09:13:48;;;;;;;26.35;6.13;;;;;;;;;;5030575;28;20438;-66
2021/11/09 09:16:13;;;;;;;26.95;6.88;;;;;;;;;;5030442;28;20021;-66
2021/11/09 09:18:39;;;;;;;20.43;6.53;;;;;;;;;;5030617;28;20021;-68
2021/11/09 09:21:18;;;;;;;17.95;5.55;;;;;;;;;;5029891;28;20284;-67
2021/11/09 09:23:51;;;;;;;19.08;6.15;;;;;;;;;;5031126;28;20032;-68
2021/11/09 09:26:40;;;;;;;23.98;5.45;;;;;;;;;;5029992;28;20053;-68
2021/11/09 09:29:12;;;;;;;16.40;4.82;;;;;;;;;;5029586;28;20095;-68
2021/11/09 09:55:48;;;;;;;13.27;4.28;;;;;;;;;;5030525;28;20017;-68
2021/11/09 09:58:13;;;;;;;29.50;4.53;;;;;;;;;;5029255;28;20022;-67
2021/11/09 10:00:40;;;;;;;9.23;3.45;;;;;;;;;;5029231;28;20075;-67
2021/11/09 10:03:06;;;;;;;15.18;5.88;;;;;;;;;;5029736;28;20023;-66
2021/11/09 10:05:37;;;;;;;15.88;5.38;;;;;;;;;;5029782;28;20104;-67
2021/11/09 10:08:07;;;;;;;13.85;5.22;;;;;;;;;;5030170;28;20017;-68
2021/11/09 10:10:34;;;;;;;10.73;3.33;;;;;;;;;;5030361;28;20044;-68
2021/11/09 10:12:59;;;;;;;5.53;3.05;;;;;;;;;;5029583;28;20033;-68
2021/11/09 10:15:27;;;;;;;18.17;5.35;;;;;;;;;;5029883;28;20048;-68
2021/11/09 10:17:53;;;;;;;15.75;3.60;;;;;;;;;;5030160;28;20025;-67
2021/11/09 10:20:33;;;;;;;8.10;3.45;;;;;;;;;;5029133;28;20022;-67
2021/11/09 10:23:00;;;;;;;17.17;4.63;;;;;;;;;;5029691;28;20139;-66
2021/11/09 10:25:26;;;;;;;24.45;4.95;;;;;;;;;;5029244;28;20447;-68
2021/11/09 10:27:53;;;;;;;8.27;3.55;;;;;;;;;;5029331;28;20096;-68
2021/11/09 10:30:21;;;;;;;15.85;3.80;;;;;;;;;;5029814;28;20044;-67
2021/11/09 10:32:46;;;;;;;6.88;2.53;;;;;;;;;;5029356;28;20147;-67
2021/11/09 10:35:13;;;;;;;12.30;4.28;;;;;;;;;;5029497;28;20161;-66
2021/11/09 10:37:39;;;;;;;6.13;2.40;;;;;;;;;;5029431;28;20022;-67
2021/11/09 10:40:12;;;;;;;15.35;2.95;;;;;;;;;;5029400;28;20450;-67
2021/11/09 10:42:38;;;;;;;15.10;4.22;;;;;;;;;;5028902;28;20052;-67
2021/11/09 10:45:09;;;;;;;23.92;5.90;;;;;;;;;;5028906;28;20028;-67
2021/11/09 10:47:35;;;;;;;15.45;4.50;;;;;;;;;;5029559;28;20517;-67
2021/11/09 10:50:03;;;;;;;13.15;3.65;;;;;;;;;;5022896;28;20191;-66
2021/11/09 10:52:31;;;;;;;14.43;3.42;;;;;;;;;;5029292;28;20026;-67
2021/11/09 10:55:07;;;;;;;8.07;2.95;;;;;;;;;;5029514;28;20095;-67
2021/11/09 10:57:52;;;;;;;24.05;4.68;;;;;;;;;;5014201;28;20425;-68
2021/11/09 11:06:10;;;;;;;7.97;2.60;;;;;;;;;;5032614;28;20047;-67
2021/11/09 11:08:35;;;;;;;15.57;4.32;;;;;;;;;;5018278;28;20375;-67
2021/11/09 11:11:15;;;;;;;10.57;2.55;;;;;;;;;;5031968;28;20025;-67
2021/11/09 11:13:40;;;;;;;19.60;3.58;;;;;;;;;;5033433;28;20029;-67
2021/11/09 11:16:07;;;;;;;9.98;2.30;;;;;;;;;;5032585;28;20025;-67
2021/11/09 11:18:34;;;;;;;15.80;2.88;;;;;;;;;;5032900;28;20159;-67
2021/11/09 11:20:59;;;;;;;9.57;3.00;;;;;;;;;;5032218;28;20025;-67
2021/11/09 11:23:25;;;;;;;9.57;2.88;;;;;;;;;;5032276;28;20457;-67
2021/11/09 11:25:51;;;;;;;13.95;3.22;;;;;;;;;;5032159;28;20022;-67
2021/11/09 11:28:17;;;;;;;14.55;2.90;;;;;;;;;;5032526;28;20107;-67
2021/11/09 11:30:42;;;;;;;9.00;1.95;;;;;;;;;;5032604;28;20509;-66
2021/11/09 11:33:08;;;;;;;11.20;2.50;;;;;;;;;;5033070;28;20018;-67
2021/11/09 11:35:33;;;;;;;14.15;3.13;;;;;;;;;;5032302;28;20401;-67
2021/11/09 11:37:58;;;;;;;23.03;3.93;;;;;;;;;;5032273;28;20421;-66
2021/11/09 11:40:23;;;;;;;4.63;2.17;;;;;;;;;;5031879;28;20288;-67
2021/11/09 11:42:48;;;;;;;14.05;2.22;;;;;;;;;;5031845;28;20471;-65
2021/11/09 11:45:14;;;;;;;8.67;2.60;;;;;;;;;;5032667;28;20040;-68
2021/11/09 11:47:40;;;;;;;8.88;2.88;;;;;;;;;;5031984;28;20272;-66
2021/11/09 11:50:10;;;;;;;1.42;0.80;;;;;;;;;;5032150;28;20021;-67
2021/11/09 11:52:49;;;;;;;7.10;3.95;;;;;;;;;;5031007;28;20068;-66
2021/11/09 11:55:21;;;;;;;11.43;2.90;;;;;;;;;;5029729;28;20499;-67
2021/11/09 11:58:09;;;;;;;10.27;3.22;;;;;;;;;;5020750;28;20112;-67
2021/11/09 12:00:41;;;;;;;9.70;2.70;;;;;;;;;;5026747;28;20034;-68
2021/11/09 12:03:18;;;;;;;2.30;1.45;;;;;;;;;;5031924;28;20021;-66
2021/11/09 12:05:45;;;;;;;10.80;2.97;;;;;;;;;;5031650;28;20049;-67
2021/11/09 12:08:11;;;;;;;6.55;2.10;;;;;;;;;;5030688;28;20482;-67
2021/11/09 12:10:44;;;;;;;12.10;3.70;;;;;;;;;;5031719;28;20033;-67
2021/11/09 12:13:10;;;;;;;16.17;3.47;;;;;;;;;;5018669;28;20096;-67
2021/11/09 12:15:55;;;;;;;9.25;2.35;;;;;;;;;;5031841;28;20133;-67
2021/11/09 12:18:37;;;;;;;12.52;3.05;;;;;;;;;;5031398;28;20079;-68
2021/11/09 12:21:03;;;;;;;5.20;1.45;;;;;;;;;;5040040;28;20164;-66
2021/11/09 12:23:32;;;;;;;10.20;2.40;;;;;;;;;;5031304;28;20028;-67
2021/11/09 12:25:57;;;;;;;13.93;3.25;;;;;;;;;;5031647;28;20021;-68
2021/11/09 12:28:30;;;;;;;11.35;2.50;;;;;;;;;;5031530;28;20037;-68
2021/11/09 12:30:55;;;;;;;14.80;3.05;;;;;;;;;;5032015;28;20409;-68
2021/11/09 12:33:38;;;;;;;16.02;3.33;;;;;;;;;;5031121;28;20116;-68
2021/11/09 12:36:05;;;;;;;14.00;3.50;;;;;;;;;;5039816;28;20560;-68
2021/11/09 12:38:30;;;;;;;13.88;1.85;;;;;;;;;;5031300;28;20034;-68
2021/11/09 12:40:57;;;;;;;6.55;1.42;;;;;;;;;;5030453;28;20080;-67
2021/11/09 12:43:24;;;;;;;6.13;1.38;;;;;;;;;;5030825;28;20029;-67
2021/11/09 12:46:09;;;;;;;13.48;2.35;;;;;;;;;;5031279;28;20037;-67
2021/11/09 12:48:40;;;;;;;2.15;0.75;;;;;;;;;;5031191;28;20032;-68
2021/11/09 12:51:11;;;;;;;5.93;2.00;;;;;;;;;;5031534;28;20025;-67
2021/11/09 12:53:47;;;;;;;9.05;2.25;;;;;;;;;;5030717;28;20079;-67
2021/11/09 12:56:14;;;;;;;17.05;2.63;;;;;;;;;;5030279;28;20056;-67
2021/11/09 12:59:07;;;;;;;8.13;1.83;;;;;;;;;;5030379;28;20028;-67
2021/11/09 13:01:44;;;;;;;9.40;2.20;;;;;;;;;;5030576;28;20029;-66
2021/11/09 13:06:54;;;;;;;7.70;1.50;;;;;;;;;;5031006;28;20095;-67
2021/11/09 13:09:41;;;;;;;6.18;1.42;;;;;;;;;;5029658;28;20308;-67
2021/11/09 13:12:08;;;;;;;6.53;1.75;;;;;;;;;;5028142;28;20029;-66
2021/11/09 13:14:39;;;;;;;8.65;2.03;;;;;;;;;;5031698;28;20049;-66
2021/11/09 13:17:12;;;;;;;9.23;2.63;;;;;;;;;;5041811;23;20042;-66
2021/11/09 13:19:41;;;;;;;7.95;1.73;;;;;;;;;;5012217;28;20018;-69
2021/11/09 13:22:08;;;;;;;12.27;1.98;;;;;;;;;;5006774;28;20010;-67
2021/11/09 13:24:36;;;;;;;6.72;1.35;;;;;;;;;;5010760;28;20470;-68
2021/11/09 13:27:01;;;;;;;10.02;2.97;;;;;;;;;;5025626;28;20025;-68
2021/11/09 13:29:26;;;;;;;6.55;1.48;;;;;;;;;;5019178;28;20021;-68
2021/11/09 13:31:52;;;;;;;14.10;2.33;;;;;;;;;;5029600;28;20037;-66
2021/11/09 13:34:18;;;;;;;7.43;1.57;;;;;;;;;;5019622;28;20018;-66
2021/11/09 13:36:43;;;;;;;14.93;2.25;;;;;;;;;;5030296;28;20252;-68
2021/11/09 13:39:08;;;;;;;10.80;2.22;;;;;;;;;;5030396;28;20025;-68
2021/11/09 13:41:33;;;;;;;10.07;2.25;;;;;;;;;;5028527;28;20029;-68
2021/11/09 13:44:06;;;;;;;8.50;1.52;;;;;;;;;;5029101;28;20655;-65
2021/11/09 13:46:33;;;;;;;3.10;0.75;;;;;;;;;;5017696;28;20109;-65
2021/11/09 13:49:00;;;;;;;9.52;2.50;;;;;;;;;;5027698;28;20021;-66
2021/11/09 13:51:27;;;;;;;8.80;2.15;;;;;;;;;;5029222;28;20033;-68
2021/11/09 13:54:01;;;;;;;9.60;1.83;;;;;;;;;;5029684;28;20018;-68
2021/11/09 13:56:27;;;;;;;10.30;1.80;;;;;;;;;;5022204;28;20045;-65
2021/11/09 13:58:53;;;;;;;6.63;1.50;;;;;;;;;;5029882;28;20044;-66
2021/11/09 14:01:30;;;;;;;6.53;2.05;;;;;;;;;;5028629;28;20025;-66
2021/11/09 14:04:05;;;;;;;7.65;2.10;;;;;;;;;;5019876;28;20481;-65
2021/11/09 14:17:11;;;;;;;14.20;2.42;;;;;;;;;;5023590;28;20088;-68
2021/11/09 14:19:39;;;;;;;14.52;2.15;;;;;;;;;;5024097;28;20025;-68
2021/11/09 14:22:18;;;;;;;7.03;2.00;;;;;;;;;;5029684;28;20717;-68
2021/11/09 14:25:00;;;;;;;8.93;2.65;;;;;;;;;;5028172;28;20053;-68
2021/11/09 14:27:30;;;;;;;12.50;3.03;;;;;;;;;;5029588;28;20028;-67
2021/11/09 14:29:56;;;;;;;8.75;2.47;;;;;;;;;;5022744;28;20017;-68
2021/11/09 14:32:26;;;;;;;8.30;2.10;;;;;;;;;;5053580;28;20474;-67
2021/11/09 14:35:03;;;;;;;11.48;2.97;;;;;;;;;;5054135;28;20021;-67
2021/11/09 14:37:36;;;;;;;5.32;1.67;;;;;;;;;;5040181;28;20048;-67
2021/11/09 14:40:04;;;;;;;12.15;2.33;;;;;;;;;;5032777;28;20478;-66
2021/11/09 14:42:43;;;;;;;6.28;2.38;;;;;;;;;;5032772;28;20017;-66
2021/11/09 14:45:28;;;;;;;7.78;2.65;;;;;;;;;;5032697;28;20144;-66
2021/11/09 14:48:06;;;;;;;13.93;2.97;;;;;;;;;;5033523;28;20029;-66
2021/11/09 14:50:49;;;;;;;1.88;0.80;;;;;;;;;;5014003;28;20030;-66
2021/11/09 14:53:23;;;;;;;11.18;2.50;;;;;;;;;;5028148;28;20014;-67
2021/11/09 14:55:51;;;;;;;6.90;3.15;;;;;;;;;;5032775;28;20505;-67
2021/11/09 14:58:31;;;;;;;7.30;1.80;;;;;;;;;;5033406;28;20033;-66
2021/11/09 15:01:18;;;;;;;8.68;2.47;;;;;;;;;;5024813;28;20113;-66
2021/11/09 15:03:53;;;;;;;7.32;2.13;;;;;;;;;;5028875;28;20021;-67
2021/11/09 15:06:27;;;;;;;8.00;1.63;;;;;;;;;;5031014;28;20013;-67
2021/11/09 15:09:03;;;;;;;5.55;1.92;;;;;;;;;;5029803;28;20028;-67
2021/11/09 15:11:33;;;;;;;4.63;1.60;;;;;;;;;;5032446;28;20028;-66
2021/11/09 15:25:04;;;;;;;6.05;1.75;;;;;;;;;;5030654;28;20028;-66
2021/11/09 15:27:42;;;;;;;8.57;2.08;;;;;;;;;;5029554;28;20378;-66
2021/11/09 15:30:10;;;;;;;8.05;2.20;;;;;;;;;;5037333;28;20547;-66
2021/11/09 15:32:37;;;;;;;8.50;2.30;;;;;;;;;;5031901;28;20052;-66
2021/11/09 15:35:10;;;;;;;14.27;2.95;;;;;;;;;;5026441;28;20366;-66
2021/11/09 15:37:38;;;;;;;8.13;2.08;;;;;;;;;;5032047;28;20029;-66
2021/11/09 15:40:07;;;;;;;8.25;2.33;;;;;;;;;;5032670;28;20064;-66
2021/11/09 15:42:32;;;;;;;7.50;1.85;;;;;;;;;;5019807;28;20044;-66
2021/11/09 15:44:58;;;;;;;10.70;2.05;;;;;;;;;;5017880;28;20462;-66
2021/11/09 15:47:24;;;;;;;11.35;2.35;;;;;;;;;;5031925;28;20172;-66
2021/11/09 15:49:49;;;;;;;10.23;2.40;;;;;;;;;;5032223;28;20121;-66
2021/11/09 15:52:14;;;;;;;9.95;3.28;;;;;;;;;;5029315;28;20527;-66
2021/11/09 15:54:40;;;;;;;13.35;3.58;;;;;;;;;;5025754;28;20103;-65
2021/11/09 15:57:06;;;;;;;7.53;2.42;;;;;;;;;;5030316;28;20021;-65
2021/11/09 15:59:31;;;;;;;10.32;2.50;;;;;;;;;;5032097;28;20113;-66
2021/11/09 16:01:57;;;;;;;6.13;2.25;;;;;;;;;;5031677;28;20069;-65
2021/11/09 16:04:30;;;;;;;6.05;2.17;;;;;;;;;;5031964;28;20083;-65
2021/11/09 16:06:57;;;;;;;5.32;2.13;;;;;;;;;;5031101;28;20101;-65
2021/11/09 16:09:23;;;;;;;10.18;2.55;;;;;;;;;;5031092;28;20025;-66
2021/11/09 16:11:48;;;;;;;12.65;3.17;;;;;;;;;;5025372;28;20490;-65
2021/11/09 16:14:13;;;;;;;11.55;2.42;;;;;;;;;;5025991;28;20017;-66
2021/11/09 16:16:38;;;;;;;9.90;3.53;;;;;;;;;;5040727;28;20034;-65
2021/11/09 16:19:04;;;;;;;13.03;2.63;;;;;;;;;;5031594;28;20272;-66
2021/11/09 16:21:29;;;;;;;12.45;2.60;;;;;;;;;;5016701;28;20656;-65
2021/11/09 16:23:54;;;;;;;10.93;3.13;;;;;;;;;;5014784;28;20443;-66
2021/11/09 16:26:19;;;;;;;7.90;2.40;;;;;;;;;;5023560;28;20021;-66
2021/11/09 16:28:44;;;;;;;5.75;2.22;;;;;;;;;;5023481;28;20020;-66
2021/11/09 16:31:10;;;;;;;9.55;2.80;;;;;;;;;;5028110;28;20030;-66
2021/11/09 16:33:37;;;;;;;12.40;3.05;;;;;;;;;;5025388;28;20033;-66
2021/11/09 16:36:08;;;;;;;8.95;2.92;;;;;;;;;;5018559;28;20017;-66
2021/11/09 16:38:38;;;;;;;10.43;3.20;;;;;;;;;;5023619;28;20014;-66
2021/11/09 16:41:05;;;;;;;7.68;2.42;;;;;;;;;;5025716;28;20045;-66
2021/11/09 16:43:37;;;;;;;6.97;2.50;;;;;;;;;;5030787;28;20116;-66
2021/11/09 16:51:41;;;;;;;10.52;3.53;;;;;;;;;;5020266;28;20163;-66
2021/11/09 16:54:17;;;;;;;10.32;3.47;;;;;;;;;;5030558;28;20083;-66
2021/11/09 17:05:00;;;;;;;16.42;3.83;;;;;;;;;;5023095;28;20443;-66
2021/11/09 18:15:36;;;;;;;14.88;5.97;;;;;;;;;;5027281;28;20039;-66
2021/11/09 18:20:47;;;;;;;14.32;6.18;;;;;;;;;;5026806;28;20055;-68
2021/11/09 18:23:12;;;;;;;18.58;5.85;;;;;;;;;;5029634;28;20017;-67
2021/11/09 18:25:37;;;;;;;20.45;6.13;;;;;;;;;;5029437;28;20024;-67
2021/11/09 18:28:04;;;;;;;15.93;6.05;;;;;;;;;;5030244;28;20482;-67
2021/11/09 18:30:32;;;;;;;24.45;7.47;;;;;;;;;;5024841;28;20434;-66
2021/11/09 18:32:59;;;;;;;13.93;6.00;;;;;;;;;;5026875;28;20022;-65
2021/11/09 18:35:24;;;;;;;22.40;6.43;;;;;;;;;;5021832;28;20025;-67
2021/11/09 18:37:50;;;;;;;17.15;5.68;;;;;;;;;;5029223;28;20026;-66
2021/11/09 18:40:17;;;;;;;16.25;6.60;;;;;;;;;;5029316;28;20501;-66
2021/11/09 18:42:42;;;;;;;13.20;5.65;;;;;;;;;;5023838;28;20045;-67